sensor_id;sensor_type;location;lat;lon;timestamp;P1;durP1;ratioP1;P2;durP2;ratioP2
69434;SDS011;56625;54.322;18.582;2023-04-06T00:02:27;15.90;;;5.40;;
69434;SDS011;56625;54.322;18.582;2023-04-06T00:04:55;16.70;;;5.30;;
69434;SDS011;56625;54.322;18.582;2023-04-06T00:07:23;15.30;;;5.20;;
69434;SDS011;56625;54.322;18.582;2023-04-06T00:09:51;14.40;;;5.20;;
69434;SDS011;56625;54.322;18.582;2023-04-06T00:12:18;14.30;;;5.90;;
69434;SDS011;56625;54.322;18.582;2023-04-06T00:14:46;16.70;;;5.30;;
69434;SDS011;56625;54.322;18.582;2023-04-06T00:17:14;14.40;;;5.40;;
69434;SDS011;56625;54.322;18.582;2023-04-06T00:19:42;15.30;;;5.20;;
69434;SDS011;56625;54.322;18.582;2023-04-06T00:22:10;17.80;;;5.80;;
69434;SDS011;56625;54.322;18.582;2023-04-06T00:24:38;16.30;;;5.50;;
69434;SDS011;56625;54.322;18.582;2023-04-06T00:27:06;15.80;;;5.10;;
69434;SDS011;56625;54.322;18.582;2023-04-06T00:29:34;18.00;;;5.40;;
69434;SDS011;56625;54.322;18.582;2023-04-06T00:32:02;17.80;;;5.60;;
69434;SDS011;56625;54.322;18.582;2023-04-06T00:34:30;18.10;;;5.60;;
69434;SDS011;56625;54.322;18.582;2023-04-06T00:36:58;15.40;;;5.20;;
69434;SDS011;56625;54.322;18.582;2023-04-06T00:39:26;17.10;;;5.40;;
69434;SDS011;56625;54.322;18.582;2023-04-06T00:41:55;15.70;;;4.90;;
69434;SDS011;56625;54.322;18.582;2023-04-06T00:44:24;17.50;;;5.60;;
69434;SDS011;56625;54.322;18.582;2023-04-06T00:46:52;18.40;;;5.40;;
69434;SDS011;56625;54.322;18.582;2023-04-06T00:49:20;16.20;;;5.20;;
69434;SDS011;56625;54.322;18.582;2023-04-06T00:51:48;16.10;;;5.40;;
69434;SDS011;56625;54.322;18.582;2023-04-06T00:54:16;20.70;;;5.90;;
69434;SDS011;56625;54.322;18.582;2023-04-06T00:56:44;17.50;;;5.50;;
69434;SDS011;56625;54.322;18.582;2023-04-06T00:59:12;14.70;;;5.10;;
69434;SDS011;56625;54.322;18.582;2023-04-06T01:01:40;15.00;;;5.00;;
69434;SDS011;56625;54.322;18.582;2023-04-06T01:04:08;14.90;;;4.50;;
69434;SDS011;56625;54.322;18.582;2023-04-06T01:06:36;17.60;;;5.60;;
69434;SDS011;56625;54.322;18.582;2023-04-06T01:09:04;15.10;;;5.10;;
69434;SDS011;56625;54.322;18.582;2023-04-06T01:11:32;15.10;;;4.60;;
69434;SDS011;56625;54.322;18.582;2023-04-06T01:14:00;17.90;;;4.80;;
69434;SDS011;56625;54.322;18.582;2023-04-06T01:16:28;16.00;;;4.20;;
69434;SDS011;56625;54.322;18.582;2023-04-06T01:18:56;18.80;;;5.10;;
69434;SDS011;56625;54.322;18.582;2023-04-06T01:21:24;17.00;;;4.90;;
69434;SDS011;56625;54.322;18.582;2023-04-06T01:23:53;13.90;;;4.60;;
69434;SDS011;56625;54.322;18.582;2023-04-06T01:26:21;15.90;;;4.70;;
69434;SDS011;56625;54.322;18.582;2023-04-06T01:28:48;16.40;;;4.40;;
69434;SDS011;56625;54.322;18.582;2023-04-06T01:31:16;17.50;;;5.60;;
69434;SDS011;56625;54.322;18.582;2023-04-06T01:33:44;15.60;;;4.50;;
69434;SDS011;56625;54.322;18.582;2023-04-06T01:36:13;14.40;;;4.80;;
69434;SDS011;56625;54.322;18.582;2023-04-06T01:38:41;15.40;;;4.40;;
69434;SDS011;56625;54.322;18.582;2023-04-06T01:41:09;15.10;;;4.90;;
69434;SDS011;56625;54.322;18.582;2023-04-06T01:43:38;14.10;;;4.80;;
69434;SDS011;56625;54.322;18.582;2023-04-06T01:46:06;14.10;;;4.60;;
69434;SDS011;56625;54.322;18.582;2023-04-06T01:48:34;18.30;;;4.50;;
69434;SDS011;56625;54.322;18.582;2023-04-06T01:51:02;13.60;;;4.10;;
69434;SDS011;56625;54.322;18.582;2023-04-06T01:53:30;16.00;;;4.30;;
69434;SDS011;56625;54.322;18.582;2023-04-06T01:55:57;13.70;;;3.90;;
69434;SDS011;56625;54.322;18.582;2023-04-06T01:58:25;15.80;;;4.40;;
69434;SDS011;56625;54.322;18.582;2023-04-06T02:00:53;13.70;;;3.90;;
69434;SDS011;56625;54.322;18.582;2023-04-06T02:03:22;11.90;;;4.30;;
69434;SDS011;56625;54.322;18.582;2023-04-06T02:05:49;12.80;;;3.80;;
69434;SDS011;56625;54.322;18.582;2023-04-06T02:08:17;15.20;;;4.20;;
69434;SDS011;56625;54.322;18.582;2023-04-06T02:10:45;13.90;;;4.50;;
69434;SDS011;56625;54.322;18.582;2023-04-06T02:13:13;15.20;;;4.00;;
69434;SDS011;56625;54.322;18.582;2023-04-06T02:15:41;13.60;;;4.30;;
69434;SDS011;56625;54.322;18.582;2023-04-06T02:18:09;12.80;;;3.90;;
69434;SDS011;56625;54.322;18.582;2023-04-06T02:20:37;13.80;;;4.20;;
69434;SDS011;56625;54.322;18.582;2023-04-06T02:23:05;13.20;;;4.80;;
69434;SDS011;56625;54.322;18.582;2023-04-06T02:25:33;15.00;;;4.00;;
69434;SDS011;56625;54.322;18.582;2023-04-06T02:28:01;13.10;;;4.20;;
69434;SDS011;56625;54.322;18.582;2023-04-06T02:30:29;14.90;;;4.40;;
69434;SDS011;56625;54.322;18.582;2023-04-06T02:32:57;12.60;;;4.10;;
69434;SDS011;56625;54.322;18.582;2023-04-06T02:35:25;12.80;;;4.30;;
69434;SDS011;56625;54.322;18.582;2023-04-06T02:37:53;14.60;;;3.60;;
69434;SDS011;56625;54.322;18.582;2023-04-06T02:40:21;14.10;;;4.00;;
69434;SDS011;56625;54.322;18.582;2023-04-06T02:42:49;11.20;;;4.00;;
69434;SDS011;56625;54.322;18.582;2023-04-06T02:45:16;12.00;;;3.50;;
69434;SDS011;56625;54.322;18.582;2023-04-06T02:47:44;11.90;;;3.70;;
69434;SDS011;56625;54.322;18.582;2023-04-06T02:50:12;14.80;;;4.50;;
69434;SDS011;56625;54.322;18.582;2023-04-06T02:52:41;13.80;;;3.90;;
69434;SDS011;56625;54.322;18.582;2023-04-06T02:55:09;13.40;;;3.90;;
69434;SDS011;56625;54.322;18.582;2023-04-06T02:57:37;12.30;;;3.70;;
69434;SDS011;56625;54.322;18.582;2023-04-06T03:00:05;9.90;;;3.60;;
69434;SDS011;56625;54.322;18.582;2023-04-06T03:02:34;12.60;;;4.20;;
69434;SDS011;56625;54.322;18.582;2023-04-06T03:05:03;11.70;;;3.90;;
69434;SDS011;56625;54.322;18.582;2023-04-06T03:07:31;13.40;;;4.30;;
69434;SDS011;56625;54.322;18.582;2023-04-06T03:09:59;14.50;;;4.00;;
69434;SDS011;56625;54.322;18.582;2023-04-06T03:12:26;15.70;;;4.00;;
69434;SDS011;56625;54.322;18.582;2023-04-06T03:14:54;13.50;;;4.20;;
69434;SDS011;56625;54.322;18.582;2023-04-06T03:17:22;13.50;;;3.80;;
69434;SDS011;56625;54.322;18.582;2023-04-06T03:19:50;11.20;;;3.40;;
69434;SDS011;56625;54.322;18.582;2023-04-06T03:22:19;13.70;;;4.00;;
69434;SDS011;56625;54.322;18.582;2023-04-06T03:24:47;11.40;;;3.60;;
69434;SDS011;56625;54.322;18.582;2023-04-06T03:27:15;9.30;;;3.00;;
69434;SDS011;56625;54.322;18.582;2023-04-06T03:29:43;14.00;;;3.80;;
69434;SDS011;56625;54.322;18.582;2023-04-06T03:32:11;13.10;;;4.00;;
69434;SDS011;56625;54.322;18.582;2023-04-06T03:34:39;13.30;;;3.50;;
69434;SDS011;56625;54.322;18.582;2023-04-06T03:37:07;12.80;;;3.10;;
69434;SDS011;56625;54.322;18.582;2023-04-06T03:39:37;10.70;;;3.00;;
69434;SDS011;56625;54.322;18.582;2023-04-06T03:42:05;9.90;;;3.30;;
69434;SDS011;56625;54.322;18.582;2023-04-06T03:44:33;12.10;;;3.60;;
69434;SDS011;56625;54.322;18.582;2023-04-06T03:47:00;11.50;;;3.50;;
69434;SDS011;56625;54.322;18.582;2023-04-06T03:49:29;11.60;;;3.20;;
69434;SDS011;56625;54.322;18.582;2023-04-06T03:51:57;11.40;;;4.20;;
69434;SDS011;56625;54.322;18.582;2023-04-06T03:54:25;12.30;;;3.70;;
69434;SDS011;56625;54.322;18.582;2023-04-06T03:56:53;14.10;;;3.50;;
69434;SDS011;56625;54.322;18.582;2023-04-06T03:59:21;11.80;;;3.60;;
69434;SDS011;56625;54.322;18.582;2023-04-06T04:01:49;13.10;;;3.50;;
69434;SDS011;56625;54.322;18.582;2023-04-06T04:04:17;10.20;;;3.30;;
69434;SDS011;56625;54.322;18.582;2023-04-06T04:06:45;12.00;;;3.80;;
69434;SDS011;56625;54.322;18.582;2023-04-06T04:09:13;10.60;;;3.70;;
69434;SDS011;56625;54.322;18.582;2023-04-06T04:11:41;13.30;;;5.00;;
69434;SDS011;56625;54.322;18.582;2023-04-06T04:14:08;10.90;;;2.90;;
69434;SDS011;56625;54.322;18.582;2023-04-06T04:16:36;10.80;;;3.30;;
69434;SDS011;56625;54.322;18.582;2023-04-06T04:19:07;12.20;;;4.80;;
69434;SDS011;56625;54.322;18.582;2023-04-06T04:21:45;15.90;;;4.10;;
69434;SDS011;56625;54.322;18.582;2023-04-06T04:24:14;14.00;;;4.90;;
69434;SDS011;56625;54.322;18.582;2023-04-06T04:26:42;13.40;;;4.40;;
69434;SDS011;56625;54.322;18.582;2023-04-06T04:29:10;14.50;;;4.10;;
69434;SDS011;56625;54.322;18.582;2023-04-06T04:31:37;13.30;;;4.20;;
69434;SDS011;56625;54.322;18.582;2023-04-06T04:34:05;14.30;;;4.30;;
69434;SDS011;56625;54.322;18.582;2023-04-06T04:36:34;12.60;;;3.80;;
69434;SDS011;56625;54.322;18.582;2023-04-06T04:39:02;19.70;;;4.90;;
69434;SDS011;56625;54.322;18.582;2023-04-06T04:41:30;15.70;;;4.60;;
69434;SDS011;56625;54.322;18.582;2023-04-06T04:43:58;14.90;;;4.40;;
69434;SDS011;56625;54.322;18.582;2023-04-06T04:46:27;17.90;;;5.50;;
69434;SDS011;56625;54.322;18.582;2023-04-06T04:48:55;16.60;;;5.30;;
69434;SDS011;56625;54.322;18.582;2023-04-06T04:51:23;17.00;;;5.00;;
69434;SDS011;56625;54.322;18.582;2023-04-06T04:53:52;14.50;;;4.50;;
69434;SDS011;56625;54.322;18.582;2023-04-06T04:56:20;15.70;;;4.90;;
69434;SDS011;56625;54.322;18.582;2023-04-06T04:58:48;17.80;;;5.40;;
69434;SDS011;56625;54.322;18.582;2023-04-06T05:01:16;20.60;;;6.00;;
69434;SDS011;56625;54.322;18.582;2023-04-06T05:03:44;22.70;;;7.20;;
69434;SDS011;56625;54.322;18.582;2023-04-06T05:06:12;23.10;;;7.10;;
69434;SDS011;56625;54.322;18.582;2023-04-06T05:08:41;19.80;;;8.00;;
69434;SDS011;56625;54.322;18.582;2023-04-06T05:11:09;24.50;;;9.10;;
69434;SDS011;56625;54.322;18.582;2023-04-06T05:13:37;23.10;;;9.00;;
69434;SDS011;56625;54.322;18.582;2023-04-06T05:16:06;23.00;;;8.00;;
69434;SDS011;56625;54.322;18.582;2023-04-06T05:18:34;22.80;;;8.30;;
69434;SDS011;56625;54.322;18.582;2023-04-06T05:21:02;22.70;;;8.30;;
69434;SDS011;56625;54.322;18.582;2023-04-06T05:23:30;22.00;;;8.00;;
69434;SDS011;56625;54.322;18.582;2023-04-06T05:25:58;20.30;;;8.10;;
69434;SDS011;56625;54.322;18.582;2023-04-06T05:28:26;16.30;;;7.50;;
69434;SDS011;56625;54.322;18.582;2023-04-06T05:30:54;19.50;;;7.90;;
69434;SDS011;56625;54.322;18.582;2023-04-06T05:33:22;20.90;;;8.10;;
69434;SDS011;56625;54.322;18.582;2023-04-06T05:35:51;21.10;;;7.50;;
69434;SDS011;56625;54.322;18.582;2023-04-06T05:38:19;24.60;;;8.10;;
69434;SDS011;56625;54.322;18.582;2023-04-06T05:40:47;27.30;;;8.10;;
69434;SDS011;56625;54.322;18.582;2023-04-06T05:43:15;21.80;;;7.20;;
69434;SDS011;56625;54.322;18.582;2023-04-06T05:45:45;17.30;;;6.90;;
69434;SDS011;56625;54.322;18.582;2023-04-06T05:48:13;19.50;;;7.00;;
69434;SDS011;56625;54.322;18.582;2023-04-06T05:50:41;21.30;;;7.00;;
69434;SDS011;56625;54.322;18.582;2023-04-06T05:53:09;18.50;;;6.30;;
69434;SDS011;56625;54.322;18.582;2023-04-06T05:55:37;16.20;;;5.70;;
69434;SDS011;56625;54.322;18.582;2023-04-06T05:58:05;12.10;;;4.50;;
69434;SDS011;56625;54.322;18.582;2023-04-06T06:00:33;12.30;;;4.50;;
69434;SDS011;56625;54.322;18.582;2023-04-06T06:03:01;11.80;;;4.50;;
69434;SDS011;56625;54.322;18.582;2023-04-06T06:05:31;13.40;;;4.10;;
69434;SDS011;56625;54.322;18.582;2023-04-06T06:07:59;13.60;;;4.00;;
69434;SDS011;56625;54.322;18.582;2023-04-06T06:10:30;14.70;;;4.20;;
69434;SDS011;56625;54.322;18.582;2023-04-06T06:12:57;11.40;;;4.00;;
69434;SDS011;56625;54.322;18.582;2023-04-06T06:15:25;18.90;;;5.00;;
69434;SDS011;56625;54.322;18.582;2023-04-06T06:17:53;16.10;;;8.00;;
69434;SDS011;56625;54.322;18.582;2023-04-06T06:20:21;13.10;;;5.10;;
69434;SDS011;56625;54.322;18.582;2023-04-06T06:22:49;11.40;;;4.70;;
69434;SDS011;56625;54.322;18.582;2023-04-06T06:25:17;11.20;;;3.10;;
69434;SDS011;56625;54.322;18.582;2023-04-06T06:27:45;9.70;;;2.20;;
69434;SDS011;56625;54.322;18.582;2023-04-06T06:30:13;12.00;;;2.40;;
69434;SDS011;56625;54.322;18.582;2023-04-06T06:32:42;8.40;;;2.20;;
69434;SDS011;56625;54.322;18.582;2023-04-06T06:35:10;10.20;;;2.60;;
69434;SDS011;56625;54.322;18.582;2023-04-06T06:37:38;9.90;;;2.80;;
69434;SDS011;56625;54.322;18.582;2023-04-06T06:40:06;12.20;;;2.90;;
69434;SDS011;56625;54.322;18.582;2023-04-06T06:42:36;10.00;;;2.50;;
69434;SDS011;56625;54.322;18.582;2023-04-06T06:45:12;10.40;;;2.60;;
69434;SDS011;56625;54.322;18.582;2023-04-06T06:47:40;12.40;;;2.50;;
69434;SDS011;56625;54.322;18.582;2023-04-06T06:50:09;8.50;;;2.10;;
69434;SDS011;56625;54.322;18.582;2023-04-06T06:52:37;11.40;;;2.30;;
69434;SDS011;56625;54.322;18.582;2023-04-06T06:55:08;7.80;;;2.50;;
69434;SDS011;56625;54.322;18.582;2023-04-06T06:57:41;9.80;;;2.70;;
69434;SDS011;56625;54.322;18.582;2023-04-06T07:00:10;9.70;;;2.80;;
69434;SDS011;56625;54.322;18.582;2023-04-06T07:02:40;10.90;;;2.90;;
69434;SDS011;56625;54.322;18.582;2023-04-06T07:05:09;9.20;;;3.30;;
69434;SDS011;56625;54.322;18.582;2023-04-06T07:07:55;12.10;;;3.60;;
69434;SDS011;56625;54.322;18.582;2023-04-06T07:10:23;10.80;;;6.50;;
69434;SDS011;56625;54.322;18.582;2023-04-06T07:12:51;14.90;;;3.70;;
69434;SDS011;56625;54.322;18.582;2023-04-06T07:15:19;15.40;;;3.60;;
69434;SDS011;56625;54.322;18.582;2023-04-06T07:17:47;12.20;;;4.00;;
69434;SDS011;56625;54.322;18.582;2023-04-06T07:20:15;10.90;;;4.10;;
69434;SDS011;56625;54.322;18.582;2023-04-06T07:22:43;12.90;;;5.10;;
69434;SDS011;56625;54.322;18.582;2023-04-06T07:25:15;10.90;;;3.90;;
69434;SDS011;56625;54.322;18.582;2023-04-06T07:27:43;9.00;;;3.30;;
69434;SDS011;56625;54.322;18.582;2023-04-06T07:30:12;11.70;;;3.90;;
69434;SDS011;56625;54.322;18.582;2023-04-06T07:32:40;12.30;;;3.90;;
69434;SDS011;56625;54.322;18.582;2023-04-06T07:35:08;13.80;;;5.20;;
69434;SDS011;56625;54.322;18.582;2023-04-06T07:37:36;18.80;;;5.50;;
69434;SDS011;56625;54.322;18.582;2023-04-06T07:40:05;16.80;;;5.30;;
69434;SDS011;56625;54.322;18.582;2023-04-06T07:42:33;14.40;;;4.30;;
69434;SDS011;56625;54.322;18.582;2023-04-06T07:45:02;19.60;;;5.70;;
69434;SDS011;56625;54.322;18.582;2023-04-06T07:47:30;13.90;;;5.00;;
69434;SDS011;56625;54.322;18.582;2023-04-06T07:49:58;14.40;;;4.80;;
69434;SDS011;56625;54.322;18.582;2023-04-06T07:52:26;14.90;;;4.90;;
69434;SDS011;56625;54.322;18.582;2023-04-06T07:54:54;13.20;;;4.90;;
69434;SDS011;56625;54.322;18.582;2023-04-06T07:57:22;13.70;;;4.90;;
69434;SDS011;56625;54.322;18.582;2023-04-06T07:59:50;17.20;;;6.30;;
69434;SDS011;56625;54.322;18.582;2023-04-06T08:02:18;17.40;;;5.50;;
69434;SDS011;56625;54.322;18.582;2023-04-06T08:04:46;16.40;;;5.30;;
69434;SDS011;56625;54.322;18.582;2023-04-06T08:07:14;12.20;;;4.30;;
69434;SDS011;56625;54.322;18.582;2023-04-06T08:09:42;11.40;;;4.30;;
69434;SDS011;56625;54.322;18.582;2023-04-06T08:12:10;14.80;;;3.90;;
69434;SDS011;56625;54.322;18.582;2023-04-06T08:14:40;11.00;;;4.10;;
69434;SDS011;56625;54.322;18.582;2023-04-06T08:17:09;7.50;;;2.80;;
69434;SDS011;56625;54.322;18.582;2023-04-06T08:19:37;11.40;;;3.70;;
69434;SDS011;56625;54.322;18.582;2023-04-06T08:22:05;8.60;;;2.90;;
69434;SDS011;56625;54.322;18.582;2023-04-06T08:24:33;11.80;;;4.10;;
69434;SDS011;56625;54.322;18.582;2023-04-06T08:27:01;9.20;;;3.60;;
69434;SDS011;56625;54.322;18.582;2023-04-06T08:29:30;11.40;;;3.30;;
69434;SDS011;56625;54.322;18.582;2023-04-06T08:31:57;9.70;;;3.70;;
69434;SDS011;56625;54.322;18.582;2023-04-06T08:34:25;11.10;;;3.30;;
69434;SDS011;56625;54.322;18.582;2023-04-06T08:36:54;11.60;;;4.10;;
69434;SDS011;56625;54.322;18.582;2023-04-06T08:39:22;11.80;;;3.40;;
69434;SDS011;56625;54.322;18.582;2023-04-06T08:41:53;8.30;;;3.30;;
69434;SDS011;56625;54.322;18.582;2023-04-06T08:44:24;10.40;;;3.70;;
69434;SDS011;56625;54.322;18.582;2023-04-06T08:46:52;8.40;;;2.70;;
69434;SDS011;56625;54.322;18.582;2023-04-06T08:49:21;8.80;;;3.10;;
69434;SDS011;56625;54.322;18.582;2023-04-06T08:51:49;10.30;;;2.80;;
69434;SDS011;56625;54.322;18.582;2023-04-06T08:54:25;8.90;;;2.60;;
69434;SDS011;56625;54.322;18.582;2023-04-06T08:56:53;7.80;;;2.40;;
69434;SDS011;56625;54.322;18.582;2023-04-06T08:59:25;10.80;;;2.50;;
69434;SDS011;56625;54.322;18.582;2023-04-06T09:01:54;6.60;;;2.20;;
69434;SDS011;56625;54.322;18.582;2023-04-06T09:04:23;11.00;;;2.50;;
69434;SDS011;56625;54.322;18.582;2023-04-06T09:06:51;9.40;;;2.50;;
69434;SDS011;56625;54.322;18.582;2023-04-06T09:09:19;7.80;;;2.30;;
69434;SDS011;56625;54.322;18.582;2023-04-06T09:11:52;7.00;;;2.40;;
69434;SDS011;56625;54.322;18.582;2023-04-06T09:14:36;7.70;;;2.10;;
69434;SDS011;56625;54.322;18.582;2023-04-06T09:17:06;8.70;;;2.00;;
69434;SDS011;56625;54.322;18.582;2023-04-06T09:19:45;6.90;;;1.90;;
69434;SDS011;56625;54.322;18.582;2023-04-06T09:22:14;6.00;;;1.70;;
69434;SDS011;56625;54.322;18.582;2023-04-06T09:24:48;7.20;;;2.10;;
69434;SDS011;56625;54.322;18.582;2023-04-06T09:27:30;7.70;;;2.00;;
69434;SDS011;56625;54.322;18.582;2023-04-06T09:30:10;7.00;;;2.20;;
69434;SDS011;56625;54.322;18.582;2023-04-06T09:32:56;7.30;;;1.80;;
69434;SDS011;56625;54.322;18.582;2023-04-06T09:35:25;6.50;;;1.90;;
69434;SDS011;56625;54.322;18.582;2023-04-06T09:37:57;7.10;;;1.90;;
69434;SDS011;56625;54.322;18.582;2023-04-06T09:40:26;9.70;;;2.50;;
69434;SDS011;56625;54.322;18.582;2023-04-06T09:42:53;8.00;;;2.00;;
69434;SDS011;56625;54.322;18.582;2023-04-06T09:45:26;6.30;;;1.80;;
69434;SDS011;56625;54.322;18.582;2023-04-06T09:47:57;6.00;;;1.70;;
69434;SDS011;56625;54.322;18.582;2023-04-06T09:50:27;6.80;;;1.50;;
69434;SDS011;56625;54.322;18.582;2023-04-06T09:52:57;5.30;;;1.80;;
69434;SDS011;56625;54.322;18.582;2023-04-06T09:55:37;6.70;;;1.90;;
69434;SDS011;56625;54.322;18.582;2023-04-06T09:58:12;6.00;;;1.40;;
69434;SDS011;56625;54.322;18.582;2023-04-06T10:01:08;7.90;;;1.90;;
69434;SDS011;56625;54.322;18.582;2023-04-06T10:06:36;6.20;;;1.40;;
69434;SDS011;56625;54.322;18.582;2023-04-06T10:09:07;6.40;;;1.80;;
69434;SDS011;56625;54.322;18.582;2023-04-06T10:11:36;7.70;;;2.00;;
69434;SDS011;56625;54.322;18.582;2023-04-06T10:14:06;6.90;;;2.30;;
69434;SDS011;56625;54.322;18.582;2023-04-06T10:16:34;6.20;;;1.60;;
69434;SDS011;56625;54.322;18.582;2023-04-06T10:19:12;6.60;;;1.70;;
69434;SDS011;56625;54.322;18.582;2023-04-06T10:21:54;5.90;;;1.70;;
69434;SDS011;56625;54.322;18.582;2023-04-06T10:24:25;7.10;;;1.60;;
69434;SDS011;56625;54.322;18.582;2023-04-06T10:27:03;5.80;;;1.30;;
69434;SDS011;56625;54.322;18.582;2023-04-06T10:30:02;5.20;;;1.40;;
69434;SDS011;56625;54.322;18.582;2023-04-06T10:32:37;6.90;;;1.80;;
69434;SDS011;56625;54.322;18.582;2023-04-06T10:35:09;6.10;;;1.30;;
69434;SDS011;56625;54.322;18.582;2023-04-06T10:37:59;5.80;;;1.50;;
69434;SDS011;56625;54.322;18.582;2023-04-06T10:40:29;5.90;;;1.40;;
69434;SDS011;56625;54.322;18.582;2023-04-06T10:43:13;6.00;;;1.50;;
69434;SDS011;56625;54.322;18.582;2023-04-06T10:45:57;6.20;;;1.90;;
69434;SDS011;56625;54.322;18.582;2023-04-06T10:48:41;6.00;;;1.60;;
69434;SDS011;56625;54.322;18.582;2023-04-06T10:51:12;7.40;;;1.80;;
69434;SDS011;56625;54.322;18.582;2023-04-06T10:53:44;7.80;;;1.20;;
69434;SDS011;56625;54.322;18.582;2023-04-06T10:56:18;6.70;;;1.40;;
69434;SDS011;56625;54.322;18.582;2023-04-06T10:58:52;4.70;;;1.00;;
69434;SDS011;56625;54.322;18.582;2023-04-06T11:01:24;9.60;;;1.60;;
69434;SDS011;56625;54.322;18.582;2023-04-06T11:03:56;6.60;;;1.30;;
69434;SDS011;56625;54.322;18.582;2023-04-06T11:06:30;5.50;;;1.50;;
69434;SDS011;56625;54.322;18.582;2023-04-06T11:09:01;5.90;;;1.60;;
69434;SDS011;56625;54.322;18.582;2023-04-06T11:11:28;6.20;;;1.10;;
69434;SDS011;56625;54.322;18.582;2023-04-06T11:14:00;5.50;;;1.60;;
69434;SDS011;56625;54.322;18.582;2023-04-06T11:16:32;5.70;;;1.20;;
69434;SDS011;56625;54.322;18.582;2023-04-06T11:19:05;5.90;;;1.00;;
69434;SDS011;56625;54.322;18.582;2023-04-06T11:21:37;5.80;;;0.90;;
69434;SDS011;56625;54.322;18.582;2023-04-06T11:24:16;5.80;;;1.50;;
69434;SDS011;56625;54.322;18.582;2023-04-06T11:29:22;6.90;;;1.50;;
69434;SDS011;56625;54.322;18.582;2023-04-06T11:32:00;7.00;;;1.40;;
69434;SDS011;56625;54.322;18.582;2023-04-06T11:34:36;5.30;;;1.10;;
69434;SDS011;56625;54.322;18.582;2023-04-06T11:37:10;6.70;;;1.30;;
69434;SDS011;56625;54.322;18.582;2023-04-06T11:39:42;5.80;;;1.40;;
69434;SDS011;56625;54.322;18.582;2023-04-06T11:42:24;4.90;;;1.30;;
69434;SDS011;56625;54.322;18.582;2023-04-06T11:44:57;6.20;;;1.40;;
69434;SDS011;56625;54.322;18.582;2023-04-06T11:47:35;8.10;;;1.40;;
69434;SDS011;56625;54.322;18.582;2023-04-06T11:50:10;5.90;;;1.40;;
69434;SDS011;56625;54.322;18.582;2023-04-06T11:52:40;7.00;;;1.80;;
69434;SDS011;56625;54.322;18.582;2023-04-06T11:55:14;5.50;;;1.30;;
69434;SDS011;56625;54.322;18.582;2023-04-06T11:57:44;8.10;;;1.50;;
69434;SDS011;56625;54.322;18.582;2023-04-06T12:00:13;7.00;;;1.20;;
69434;SDS011;56625;54.322;18.582;2023-04-06T12:02:45;5.70;;;0.90;;
69434;SDS011;56625;54.322;18.582;2023-04-06T12:05:14;7.00;;;1.20;;
69434;SDS011;56625;54.322;18.582;2023-04-06T12:07:42;6.30;;;1.20;;
69434;SDS011;56625;54.322;18.582;2023-04-06T12:10:10;7.30;;;1.30;;
69434;SDS011;56625;54.322;18.582;2023-04-06T12:12:39;5.20;;;0.90;;
69434;SDS011;56625;54.322;18.582;2023-04-06T12:15:07;6.70;;;1.10;;
69434;SDS011;56625;54.322;18.582;2023-04-06T12:17:35;5.80;;;1.00;;
69434;SDS011;56625;54.322;18.582;2023-04-06T12:20:04;7.20;;;1.00;;
69434;SDS011;56625;54.322;18.582;2023-04-06T12:22:51;5.10;;;0.90;;
69434;SDS011;56625;54.322;18.582;2023-04-06T12:25:19;4.50;;;0.60;;
69434;SDS011;56625;54.322;18.582;2023-04-06T12:27:47;4.00;;;0.60;;
69434;SDS011;56625;54.322;18.582;2023-04-06T12:30:15;5.70;;;0.80;;
69434;SDS011;56625;54.322;18.582;2023-04-06T12:32:44;4.90;;;0.70;;
69434;SDS011;56625;54.322;18.582;2023-04-06T12:35:12;3.40;;;0.50;;
69434;SDS011;56625;54.322;18.582;2023-04-06T12:37:43;4.00;;;1.00;;
69434;SDS011;56625;54.322;18.582;2023-04-06T12:40:11;5.60;;;0.80;;
69434;SDS011;56625;54.322;18.582;2023-04-06T12:42:39;6.00;;;0.60;;
69434;SDS011;56625;54.322;18.582;2023-04-06T12:45:09;3.80;;;0.60;;
69434;SDS011;56625;54.322;18.582;2023-04-06T12:47:37;3.50;;;0.60;;
69434;SDS011;56625;54.322;18.582;2023-04-06T12:50:06;6.10;;;0.60;;
69434;SDS011;56625;54.322;18.582;2023-04-06T12:52:34;3.80;;;0.40;;
69434;SDS011;56625;54.322;18.582;2023-04-06T12:55:03;3.70;;;0.40;;
69434;SDS011;56625;54.322;18.582;2023-04-06T12:57:32;4.40;;;0.60;;
69434;SDS011;56625;54.322;18.582;2023-04-06T13:00:05;2.30;;;0.40;;
69434;SDS011;56625;54.322;18.582;2023-04-06T13:02:36;2.30;;;0.30;;
69434;SDS011;56625;54.322;18.582;2023-04-06T13:05:04;3.50;;;0.50;;
69434;SDS011;56625;54.322;18.582;2023-04-06T13:07:33;5.30;;;0.70;;
69434;SDS011;56625;54.322;18.582;2023-04-06T13:10:01;3.00;;;0.50;;
69434;SDS011;56625;54.322;18.582;2023-04-06T13:12:29;3.70;;;0.40;;
69434;SDS011;56625;54.322;18.582;2023-04-06T13:14:57;3.60;;;0.30;;
69434;SDS011;56625;54.322;18.582;2023-04-06T13:17:27;3.80;;;0.80;;
69434;SDS011;56625;54.322;18.582;2023-04-06T13:19:55;5.20;;;0.50;;
69434;SDS011;56625;54.322;18.582;2023-04-06T13:22:27;4.20;;;0.50;;
69434;SDS011;56625;54.322;18.582;2023-04-06T13:24:55;4.40;;;0.50;;
69434;SDS011;56625;54.322;18.582;2023-04-06T13:27:37;2.50;;;0.20;;
69434;SDS011;56625;54.322;18.582;2023-04-06T13:30:06;4.20;;;0.60;;
69434;SDS011;56625;54.322;18.582;2023-04-06T13:32:35;4.10;;;0.50;;
69434;SDS011;56625;54.322;18.582;2023-04-06T13:35:04;4.20;;;0.70;;
69434;SDS011;56625;54.322;18.582;2023-04-06T13:37:34;3.80;;;0.60;;
69434;SDS011;56625;54.322;18.582;2023-04-06T13:40:03;3.50;;;0.50;;
69434;SDS011;56625;54.322;18.582;2023-04-06T13:42:34;1.70;;;0.40;;
69434;SDS011;56625;54.322;18.582;2023-04-06T13:45:04;4.80;;;0.60;;
69434;SDS011;56625;54.322;18.582;2023-04-06T13:47:32;2.10;;;0.30;;
69434;SDS011;56625;54.322;18.582;2023-04-06T13:50:00;2.10;;;0.40;;
69434;SDS011;56625;54.322;18.582;2023-04-06T13:52:28;3.80;;;0.50;;
69434;SDS011;56625;54.322;18.582;2023-04-06T13:54:56;2.20;;;0.40;;
69434;SDS011;56625;54.322;18.582;2023-04-06T13:57:24;4.40;;;0.60;;
69434;SDS011;56625;54.322;18.582;2023-04-06T13:59:52;2.10;;;0.30;;
69434;SDS011;56625;54.322;18.582;2023-04-06T14:02:20;3.50;;;0.50;;
69434;SDS011;56625;54.322;18.582;2023-04-06T14:04:48;3.90;;;0.60;;
69434;SDS011;56625;54.322;18.582;2023-04-06T14:07:16;4.50;;;0.60;;
69434;SDS011;56625;54.322;18.582;2023-04-06T14:09:43;3.30;;;0.70;;
69434;SDS011;56625;54.322;18.582;2023-04-06T14:12:11;4.40;;;0.60;;
69434;SDS011;56625;54.322;18.582;2023-04-06T14:14:39;5.10;;;0.80;;
69434;SDS011;56625;54.322;18.582;2023-04-06T14:17:07;4.50;;;0.70;;
69434;SDS011;56625;54.322;18.582;2023-04-06T14:19:35;3.60;;;0.60;;
69434;SDS011;56625;54.322;18.582;2023-04-06T14:22:04;7.90;;;0.80;;
69434;SDS011;56625;54.322;18.582;2023-04-06T14:24:32;2.10;;;0.30;;
69434;SDS011;56625;54.322;18.582;2023-04-06T14:27:00;5.00;;;0.50;;
69434;SDS011;56625;54.322;18.582;2023-04-06T14:29:28;4.00;;;0.50;;
69434;SDS011;56625;54.322;18.582;2023-04-06T14:31:56;4.10;;;0.70;;
69434;SDS011;56625;54.322;18.582;2023-04-06T14:34:27;2.70;;;0.50;;
69434;SDS011;56625;54.322;18.582;2023-04-06T14:36:55;3.40;;;0.50;;
69434;SDS011;56625;54.322;18.582;2023-04-06T14:39:23;4.50;;;0.60;;
69434;SDS011;56625;54.322;18.582;2023-04-06T14:41:51;3.90;;;0.70;;
69434;SDS011;56625;54.322;18.582;2023-04-06T14:44:19;2.70;;;0.50;;
69434;SDS011;56625;54.322;18.582;2023-04-06T14:46:47;2.90;;;0.50;;
69434;SDS011;56625;54.322;18.582;2023-04-06T14:49:17;3.30;;;0.70;;